sensor_id;sensor_type;location;lat;lon;timestamp;pressure;altitude;pressure_sealevel;temperature;humidity
50734;BME280;36701;51.798;19.474;2022-07-10T00:01:19;98830.94;;;15.41;100.00
50734;BME280;36701;51.798;19.474;2022-07-10T00:03:46;98832.41;;;15.57;100.00
50734;BME280;36701;51.798;19.474;2022-07-10T00:06:12;98852.38;;;15.67;100.00
50734;BME280;36701;51.798;19.474;2022-07-10T00:08:39;98802.91;;;15.21;100.00
50734;BME280;36701;51.798;19.474;2022-07-10T00:11:06;98803.97;;;15.25;100.00
50734;BME280;36701;51.798;19.474;2022-07-10T00:13:33;98836.34;;;15.41;100.00
50734;BME280;36701;51.798;19.474;2022-07-10T00:15:59;98799.25;;;15.07;100.00
50734;BME280;36701;51.798;19.474;2022-07-10T00:18:28;98803.81;;;15.12;100.00
50734;BME280;36701;51.798;19.474;2022-07-10T00:20:54;98764.19;;;14.86;100.00
50734;BME280;36701;51.798;19.474;2022-07-10T00:23:21;98806.25;;;15.13;100.00
50734;BME280;36701;51.798;19.474;2022-07-10T00:25:47;98794.25;;;15.19;100.00
50734;BME280;36701;51.798;19.474;2022-07-10T00:28:14;98826.06;;;15.43;100.00
50734;BME280;36701;51.798;19.474;2022-07-10T00:30:40;98824.66;;;15.46;100.00
50734;BME280;36701;51.798;19.474;2022-07-10T00:33:08;98780.75;;;15.14;100.00
50734;BME280;36701;51.798;19.474;2022-07-10T00:35:34;98836.34;;;15.46;100.00
50734;BME280;36701;51.798;19.474;2022-07-10T00:38:00;98789.97;;;15.13;100.00
50734;BME280;36701;51.798;19.474;2022-07-10T00:40:27;98825.56;;;15.36;100.00
50734;BME280;36701;51.798;19.474;2022-07-10T00:42:53;98815.00;;;15.34;100.00
50734;BME280;36701;51.798;19.474;2022-07-10T00:45:19;98799.13;;;15.22;100.00
50734;BME280;36701;51.798;19.474;2022-07-10T00:47:46;98790.97;;;15.22;100.00
50734;BME280;36701;51.798;19.474;2022-07-10T00:50:12;98763.91;;;15.17;100.00
50734;BME280;36701;51.798;19.474;2022-07-10T00:52:40;98773.59;;;15.23;100.00
50734;BME280;36701;51.798;19.474;2022-07-10T00:55:07;98773.09;;;15.46;100.00
50734;BME280;36701;51.798;19.474;2022-07-10T00:57:36;98770.38;;;15.46;100.00
50734;BME280;36701;51.798;19.474;2022-07-10T01:00:03;98812.50;;;15.67;100.00
50734;BME280;36701;51.798;19.474;2022-07-10T01:02:30;98801.34;;;15.69;100.00
50734;BME280;36701;51.798;19.474;2022-07-10T01:04:57;98810.59;;;15.68;100.00
50734;BME280;36701;51.798;19.474;2022-07-10T01:07:23;98769.00;;;15.48;100.00
50734;BME280;36701;51.798;19.474;2022-07-10T01:09:50;98768.50;;;15.46;100.00
50734;BME280;36701;51.798;19.474;2022-07-10T01:12:17;98789.78;;;15.58;100.00
50734;BME280;36701;51.798;19.474;2022-07-10T01:14:43;98764.75;;;15.42;100.00
50734;BME280;36701;51.798;19.474;2022-07-10T01:17:10;98794.00;;;15.69;100.00
50734;BME280;36701;51.798;19.474;2022-07-10T01:19:37;98797.00;;;15.68;100.00
50734;BME280;36701;51.798;19.474;2022-07-10T01:22:04;98749.94;;;15.29;100.00
50734;BME280;36701;51.798;19.474;2022-07-10T01:24:30;98713.00;;;15.09;100.00
50734;BME280;36701;51.798;19.474;2022-07-10T01:26:57;98763.22;;;15.31;100.00
50734;BME280;36701;51.798;19.474;2022-07-10T01:29:23;98767.59;;;15.26;100.00
50734;BME280;36701;51.798;19.474;2022-07-10T01:31:50;98799.84;;;15.57;100.00
50734;BME280;36701;51.798;19.474;2022-07-10T01:34:16;98811.84;;;15.51;100.00
50734;BME280;36701;51.798;19.474;2022-07-10T01:36:43;98798.34;;;15.46;100.00
50734;BME280;36701;51.798;19.474;2022-07-10T01:39:09;98798.38;;;15.41;100.00
50734;BME280;36701;51.798;19.474;2022-07-10T01:41:35;98753.75;;;15.28;100.00
50734;BME280;36701;51.798;19.474;2022-07-10T01:44:02;98760.78;;;15.05;100.00
50734;BME280;36701;51.798;19.474;2022-07-10T01:46:29;98788.63;;;15.40;100.00
50734;BME280;36701;51.798;19.474;2022-07-10T01:48:55;98781.00;;;15.42;100.00
50734;BME280;36701;51.798;19.474;2022-07-10T01:51:22;98783.22;;;15.40;100.00
50734;BME280;36701;51.798;19.474;2022-07-10T01:53:49;98734.47;;;15.05;100.00
50734;BME280;36701;51.798;19.474;2022-07-10T01:56:16;98784.41;;;15.29;100.00
50734;BME280;36701;51.798;19.474;2022-07-10T01:58:42;98780.38;;;15.26;100.00
50734;BME280;36701;51.798;19.474;2022-07-10T02:01:09;98743.87;;;15.13;100.00
50734;BME280;36701;51.798;19.474;2022-07-10T02:03:36;98778.81;;;15.44;100.00
50734;BME280;36701;51.798;19.474;2022-07-10T02:06:21;98765.81;;;15.41;100.00
50734;BME280;36701;51.798;19.474;2022-07-10T02:08:48;98764.66;;;15.47;100.00
50734;BME280;36701;51.798;19.474;2022-07-10T02:11:14;98730.03;;;15.15;100.00
50734;BME280;36701;51.798;19.474;2022-07-10T02:13:41;98727.59;;;15.13;100.00
50734;BME280;36701;51.798;19.474;2022-07-10T02:16:07;98737.94;;;15.11;100.00
50734;BME280;36701;51.798;19.474;2022-07-10T02:18:34;98729.09;;;15.00;100.00
50734;BME280;36701;51.798;19.474;2022-07-10T02:21:00;98742.78;;;15.14;100.00
50734;BME280;36701;51.798;19.474;2022-07-10T02:23:26;98773.59;;;15.23;100.00
50734;BME280;36701;51.798;19.474;2022-07-10T02:25:54;98724.53;;;14.96;100.00
50734;BME280;36701;51.798;19.474;2022-07-10T02:28:20;98765.00;;;15.16;100.00
50734;BME280;36701;51.798;19.474;2022-07-10T02:30:47;98693.94;;;14.61;100.00
50734;BME280;36701;51.798;19.474;2022-07-10T02:33:13;98728.09;;;14.91;100.00
50734;BME280;36701;51.798;19.474;2022-07-10T02:35:39;98704.72;;;14.66;100.00
50734;BME280;36701;51.798;19.474;2022-07-10T02:38:06;98769.94;;;15.09;100.00
50734;BME280;36701;51.798;19.474;2022-07-10T02:40:32;98722.06;;;14.70;100.00
50734;BME280;36701;51.798;19.474;2022-07-10T02:42:58;98721.50;;;14.73;100.00
50734;BME280;36701;51.798;19.474;2022-07-10T02:45:25;98767.09;;;14.95;100.00
50734;BME280;36701;51.798;19.474;2022-07-10T02:47:51;98751.16;;;14.88;100.00
50734;BME280;36701;51.798;19.474;2022-07-10T02:50:17;98782.06;;;14.87;100.00
50734;BME280;36701;51.798;19.474;2022-07-10T02:52:44;98776.56;;;14.98;100.00
50734;BME280;36701;51.798;19.474;2022-07-10T02:55:10;98765.66;;;14.74;100.00
50734;BME280;36701;51.798;19.474;2022-07-10T02:57:36;98736.91;;;14.38;100.00
50734;BME280;36701;51.798;19.474;2022-07-10T03:00:03;98774.44;;;14.60;100.00
50734;BME280;36701;51.798;19.474;2022-07-10T03:02:30;98794.78;;;14.92;100.00
50734;BME280;36701;51.798;19.474;2022-07-10T03:04:56;98776.69;;;14.82;100.00
50734;BME280;36701;51.798;19.474;2022-07-10T03:07:23;98758.59;;;14.73;100.00
50734;BME280;36701;51.798;19.474;2022-07-10T03:09:49;98755.47;;;14.60;100.00
50734;BME280;36701;51.798;19.474;2022-07-10T03:12:15;98784.84;;;14.82;100.00
50734;BME280;36701;51.798;19.474;2022-07-10T03:14:42;98739.75;;;14.57;100.00
50734;BME280;36701;51.798;19.474;2022-07-10T03:17:08;98745.94;;;14.63;100.00
50734;BME280;36701;51.798;19.474;2022-07-10T03:19:34;98791.00;;;14.88;100.00
50734;BME280;36701;51.798;19.474;2022-07-10T03:22:01;98785.41;;;14.79;100.00
50734;BME280;36701;51.798;19.474;2022-07-10T03:24:27;98785.97;;;14.76;100.00
50734;BME280;36701;51.798;19.474;2022-07-10T03:26:53;98737.31;;;14.56;100.00
50734;BME280;36701;51.798;19.474;2022-07-10T03:29:20;98771.06;;;14.74;100.00
50734;BME280;36701;51.798;19.474;2022-07-10T03:31:46;98778.72;;;14.66;100.00
50734;BME280;36701;51.798;19.474;2022-07-10T03:34:13;98760.56;;;14.67;100.00
50734;BME280;36701;51.798;19.474;2022-07-10T03:36:39;98734.31;;;14.57;100.00
50734;BME280;36701;51.798;19.474;2022-07-10T03:39:06;98740.50;;;14.68;100.00
50734;BME280;36701;51.798;19.474;2022-07-10T03:41:32;98764.75;;;14.83;100.00
50734;BME280;36701;51.798;19.474;2022-07-10T03:43:59;98721.84;;;14.61;100.00
50734;BME280;36701;51.798;19.474;2022-07-10T03:46:25;98757.41;;;14.89;100.00
50734;BME280;36701;51.798;19.474;2022-07-10T03:48:51;98711.78;;;14.67;100.00
50734;BME280;36701;51.798;19.474;2022-07-10T03:51:18;98702.88;;;14.61;100.00
50734;BME280;36701;51.798;19.474;2022-07-10T03:53:44;98743.72;;;14.99;100.00
50734;BME280;36701;51.798;19.474;2022-07-10T03:56:11;98748.97;;;14.91;100.00
50734;BME280;36701;51.798;19.474;2022-07-10T03:58:57;98732.72;;;14.91;100.00
50734;BME280;36701;51.798;19.474;2022-07-10T04:01:24;98732.03;;;15.04;100.00
50734;BME280;36701;51.798;19.474;2022-07-10T04:03:50;98730.66;;;15.06;100.00
50734;BME280;36701;51.798;19.474;2022-07-10T04:06:17;98692.13;;;14.85;100.00
50734;BME280;36701;51.798;19.474;2022-07-10T04:08:43;98689.53;;;14.70;100.00
50734;BME280;36701;51.798;19.474;2022-07-10T04:11:09;98700.94;;;14.67;100.00
50734;BME280;36701;51.798;19.474;2022-07-10T04:13:36;98736.50;;;14.89;100.00
50734;BME280;36701;51.798;19.474;2022-07-10T04:16:03;98694.47;;;14.63;100.00
50734;BME280;36701;51.798;19.474;2022-07-10T04:18:29;98731.09;;;14.89;100.00
50734;BME280;36701;51.798;19.474;2022-07-10T04:20:55;98730.53;;;14.93;100.00
50734;BME280;36701;51.798;19.474;2022-07-10T04:23:22;98686.53;;;14.71;100.00
50734;BME280;36701;51.798;19.474;2022-07-10T04:25:48;98714.38;;;14.82;100.00
50734;BME280;36701;51.798;19.474;2022-07-10T04:28:14;98741.97;;;14.84;100.00
50734;BME280;36701;51.798;19.474;2022-07-10T04:30:41;98738.13;;;14.91;100.00
50734;BME280;36701;51.798;19.474;2022-07-10T04:33:07;98701.50;;;14.64;100.00
50734;BME280;36701;51.798;19.474;2022-07-10T04:35:33;98698.41;;;14.76;100.00
50734;BME280;36701;51.798;19.474;2022-07-10T04:38:00;98734.88;;;14.88;100.00
50734;BME280;36701;51.798;19.474;2022-07-10T04:40:26;98730.69;;;14.72;100.00
50734;BME280;36701;51.798;19.474;2022-07-10T04:42:52;98732.88;;;14.70;100.00
50734;BME280;36701;51.798;19.474;2022-07-10T04:45:19;98695.84;;;14.60;100.00
50734;BME280;36701;51.798;19.474;2022-07-10T04:47:45;98729.66;;;14.68;100.00
50734;BME280;36701;51.798;19.474;2022-07-10T04:50:18;98725.31;;;14.67;100.00
50734;BME280;36701;51.798;19.474;2022-07-10T04:52:45;98732.78;;;14.85;100.00
50734;BME280;36701;51.798;19.474;2022-07-10T04:55:11;98693.00;;;14.76;100.00
50734;BME280;36701;51.798;19.474;2022-07-10T04:57:44;98727.66;;;15.08;100.00
50734;BME280;36701;51.798;19.474;2022-07-10T05:00:11;98737.56;;;14.94;100.00
50734;BME280;36701;51.798;19.474;2022-07-10T05:02:37;98704.09;;;14.79;100.00
50734;BME280;36701;51.798;19.474;2022-07-10T05:05:04;98695.34;;;14.87;100.00
50734;BME280;36701;51.798;19.474;2022-07-10T05:07:30;98732.25;;;15.07;100.00
50734;BME280;36701;51.798;19.474;2022-07-10T05:09:57;98644.91;;;14.62;100.00
50734;BME280;36701;51.798;19.474;2022-07-10T05:12:23;98736.31;;;15.10;100.00
50734;BME280;36701;51.798;19.474;2022-07-10T05:14:49;98743.44;;;15.01;100.00
50734;BME280;36701;51.798;19.474;2022-07-10T05:17:16;98746.09;;;15.06;100.00
50734;BME280;36701;51.798;19.474;2022-07-10T05:19:42;98689.44;;;14.80;100.00
50734;BME280;36701;51.798;19.474;2022-07-10T05:22:09;98745.44;;;15.19;100.00
50734;BME280;36701;51.798;19.474;2022-07-10T05:24:35;98738.69;;;15.17;100.00
50734;BME280;36701;51.798;19.474;2022-07-10T05:27:02;98734.59;;;15.19;100.00
50734;BME280;36701;51.798;19.474;2022-07-10T05:29:28;98702.63;;;14.92;100.00
50734;BME280;36701;51.798;19.474;2022-07-10T05:31:55;98686.44;;;14.82;100.00
50734;BME280;36701;51.798;19.474;2022-07-10T05:34:21;98727.19;;;15.01;100.00
50734;BME280;36701;51.798;19.474;2022-07-10T05:36:47;98684.56;;;14.82;100.00
50734;BME280;36701;51.798;19.474;2022-07-10T05:39:14;98730.66;;;15.06;100.00
50734;BME280;36701;51.798;19.474;2022-07-10T05:41:40;98697.84;;;14.79;100.00
50734;BME280;36701;51.798;19.474;2022-07-10T05:44:07;98703.94;;;14.95;100.00
50734;BME280;36701;51.798;19.474;2022-07-10T05:46:33;98725.53;;;15.05;100.00
50734;BME280;36701;51.798;19.474;2022-07-10T05:49:00;98717.41;;;15.05;100.00
50734;BME280;36701;51.798;19.474;2022-07-10T05:51:27;98739.78;;;15.16;100.00
50734;BME280;36701;51.798;19.474;2022-07-10T05:53:54;98702.72;;;15.06;100.00
50734;BME280;36701;51.798;19.474;2022-07-10T05:56:20;98673.53;;;14.98;100.00
50734;BME280;36701;51.798;19.474;2022-07-10T05:58:46;98736.75;;;15.47;100.00
50734;BME280;36701;51.798;19.474;2022-07-10T06:01:13;98720.81;;;15.40;100.00
50734;BME280;36701;51.798;19.474;2022-07-10T06:03:39;98734.31;;;15.45;100.00
50734;BME280;36701;51.798;19.474;2022-07-10T06:06:05;98754.59;;;15.23;100.00
50734;BME280;36701;51.798;19.474;2022-07-10T06:08:32;98752.66;;;15.05;100.00
50734;BME280;36701;51.798;19.474;2022-07-10T06:10:58;98676.69;;;14.46;100.00
50734;BME280;36701;51.798;19.474;2022-07-10T06:13:24;98748.63;;;14.97;100.00
50734;BME280;36701;51.798;19.474;2022-07-10T06:15:51;98734.19;;;15.07;100.00
50734;BME280;36701;51.798;19.474;2022-07-10T06:18:17;98701.41;;;14.74;100.00
50734;BME280;36701;51.798;19.474;2022-07-10T06:20:44;98729.59;;;15.02;100.00
50734;BME280;36701;51.798;19.474;2022-07-10T06:23:10;98735.63;;;15.23;100.00
50734;BME280;36701;51.798;19.474;2022-07-10T06:25:36;98684.28;;;15.08;100.00
50734;BME280;36701;51.798;19.474;2022-07-10T06:28:03;98732.19;;;15.42;100.00
50734;BME280;36701;51.798;19.474;2022-07-10T06:30:29;98708.50;;;15.23;100.00
50734;BME280;36701;51.798;19.474;2022-07-10T06:32:56;98715.50;;;15.30;100.00
50734;BME280;36701;51.798;19.474;2022-07-10T06:35:22;98694.00;;;15.14;100.00
50734;BME280;36701;51.798;19.474;2022-07-10T06:37:48;98707.06;;;15.31;100.00
50734;BME280;36701;51.798;19.474;2022-07-10T06:40:15;98686.25;;;14.73;100.00
50734;BME280;36701;51.798;19.474;2022-07-10T06:42:42;98753.72;;;15.04;100.00
50734;BME280;36701;51.798;19.474;2022-07-10T06:45:09;98735.59;;;14.99;100.00
50734;BME280;36701;51.798;19.474;2022-07-10T06:47:36;98743.56;;;14.91;100.00
50734;BME280;36701;51.798;19.474;2022-07-10T06:50:22;98701.50;;;14.64;100.00
50734;BME280;36701;51.798;19.474;2022-07-10T06:52:49;98691.16;;;14.71;100.00
50734;BME280;36701;51.798;19.474;2022-07-10T06:55:16;98741.59;;;14.96;100.00
50734;BME280;36701;51.798;19.474;2022-07-10T06:57:44;98740.59;;;15.16;100.00
50734;BME280;36701;51.798;19.474;2022-07-10T07:00:10;98706.19;;;15.12;100.00
50734;BME280;36701;51.798;19.474;2022-07-10T07:02:38;98730.69;;;15.31;100.00
50734;BME280;36701;51.798;19.474;2022-07-10T07:05:05;98737.47;;;15.28;100.00
50734;BME280;36701;51.798;19.474;2022-07-10T07:07:32;98731.66;;;15.40;100.00
50734;BME280;36701;51.798;19.474;2022-07-10T07:09:58;98718.56;;;15.47;100.00
50734;BME280;36701;51.798;19.474;2022-07-10T07:12:24;98718.69;;;15.37;100.00
50734;BME280;36701;51.798;19.474;2022-07-10T07:14:51;98721.91;;;15.39;100.00
50734;BME280;36701;51.798;19.474;2022-07-10T07:17:18;98726.13;;;15.50;100.00
50734;BME280;36701;51.798;19.474;2022-07-10T07:19:49;98730.69;;;15.79;100.00
50734;BME280;36701;51.798;19.474;2022-07-10T07:22:35;98693.47;;;15.55;100.00
50734;BME280;36701;51.798;19.474;2022-07-10T07:25:20;98737.59;;;15.42;100.00
50734;BME280;36701;51.798;19.474;2022-07-10T07:27:46;98737.03;;;15.45;100.00
50734;BME280;36701;51.798;19.474;2022-07-10T07:30:14;98718.75;;;15.02;100.00
50734;BME280;36701;51.798;19.474;2022-07-10T07:32:42;98736.34;;;14.76;100.00
50734;BME280;36701;51.798;19.474;2022-07-10T07:35:10;98743.22;;;14.68;100.00
50734;BME280;36701;51.798;19.474;2022-07-10T07:37:41;98733.84;;;14.84;100.00
50734;BME280;36701;51.798;19.474;2022-07-10T07:40:13;98716.91;;;14.98;100.00
50734;BME280;36701;51.798;19.474;2022-07-10T07:42:40;98708.94;;;14.82;100.00
50734;BME280;36701;51.798;19.474;2022-07-10T07:45:08;98730.66;;;15.06;100.00
50734;BME280;36701;51.798;19.474;2022-07-10T07:47:51;98715.25;;;15.02;100.00
50734;BME280;36701;51.798;19.474;2022-07-10T07:50:21;98692.94;;;15.10;100.00
50734;BME280;36701;51.798;19.474;2022-07-10T07:52:48;98691.66;;;15.02;100.00
50734;BME280;36701;51.798;19.474;2022-07-10T07:55:17;98702.12;;;15.14;100.00
50734;BME280;36701;51.798;19.474;2022-07-10T07:57:45;98698.56;;;15.38;100.00
50734;BME280;36701;51.798;19.474;2022-07-10T08:00:13;98736.78;;;15.66;100.00
50734;BME280;36701;51.798;19.474;2022-07-10T08:02:41;98734.50;;;15.73;100.00
50734;BME280;36701;51.798;19.474;2022-07-10T08:05:07;98721.88;;;15.87;100.00
50734;BME280;36701;51.798;19.474;2022-07-10T08:07:40;98695.56;;;15.64;100.00
50734;BME280;36701;51.798;19.474;2022-07-10T08:10:08;98751.69;;;15.92;100.00
50734;BME280;36701;51.798;19.474;2022-07-10T08:12:35;98738.63;;;15.94;100.00
50734;BME280;36701;51.798;19.474;2022-07-10T08:15:02;98736.22;;;16.12;100.00
50734;BME280;36701;51.798;19.474;2022-07-10T08:17:29;98735.97;;;16.27;100.00
50734;BME280;36701;51.798;19.474;2022-07-10T08:19:55;98721.47;;;15.99;100.00
50734;BME280;36701;51.798;19.474;2022-07-10T08:22:21;98715.00;;;16.14;100.00
50734;BME280;36701;51.798;19.474;2022-07-10T08:24:48;98733.13;;;16.38;100.00
50734;BME280;36701;51.798;19.474;2022-07-10T08:27:14;98710.53;;;16.23;100.00
50734;BME280;36701;51.798;19.474;2022-07-10T08:29:41;98757.34;;;16.53;100.00
50734;BME280;36701;51.798;19.474;2022-07-10T08:32:07;98754.38;;;16.68;100.00
50734;BME280;36701;51.798;19.474;2022-07-10T08:34:36;98774.75;;;16.52;100.00
50734;BME280;36701;51.798;19.474;2022-07-10T08:37:03;98766.41;;;16.29;100.00
50734;BME280;36701;51.798;19.474;2022-07-10T08:39:30;98708.31;;;15.87;100.00
50734;BME280;36701;51.798;19.474;2022-07-10T08:41:58;98738.25;;;16.39;100.00
50734;BME280;36701;51.798;19.474;2022-07-10T08:44:25;98741.06;;;16.67;100.00
50734;BME280;36701;51.798;19.474;2022-07-10T08:46:51;98719.94;;;16.45;100.00
50734;BME280;36701;51.798;19.474;2022-07-10T08:49:20;98717.47;;;16.48;100.00
50734;BME280;36701;51.798;19.474;2022-07-10T08:51:54;98699.19;;;16.16;100.00
50734;BME280;36701;51.798;19.474;2022-07-10T08:54:25;98765.72;;;16.57;100.00
50734;BME280;36701;51.798;19.474;2022-07-10T08:57:01;98714.63;;;16.21;100.00
50734;BME280;36701;51.798;19.474;2022-07-10T08:59:29;98750.97;;;16.44;100.00
50734;BME280;36701;51.798;19.474;2022-07-10T09:01:55;98747.62;;;16.66;100.00
50734;BME280;36701;51.798;19.474;2022-07-10T09:04:24;98743.59;;;16.63;100.00
50734;BME280;36701;51.798;19.474;2022-07-10T09:06:52;98702.31;;;16.61;100.00
50734;BME280;36701;51.798;19.474;2022-07-10T09:09:19;98756.69;;;16.61;100.00
50734;BME280;36701;51.798;19.474;2022-07-10T09:11:46;98736.97;;;16.69;100.00
50734;BME280;36701;51.798;19.474;2022-07-10T09:14:16;98709.19;;;16.73;100.00
50734;BME280;36701;51.798;19.474;2022-07-10T09:16:44;98755.31;;;16.78;100.00
50734;BME280;36701;51.798;19.474;2022-07-10T09:21:45;98732.75;;;16.44;100.00
50734;BME280;36701;51.798;19.474;2022-07-10T09:24:11;98746.81;;;16.65;100.00
50734;BME280;36701;51.798;19.474;2022-07-10T09:26:38;98688.03;;;16.17;100.00
50734;BME280;36701;51.798;19.474;2022-07-10T09:29:10;98758.87;;;16.59;100.00
50734;BME280;36701;51.798;19.474;2022-07-10T09:31:52;98770.19;;;16.66;100.00
50734;BME280;36701;51.798;19.474;2022-07-10T09:34:39;98722.03;;;16.53;100.00
50734;BME280;36701;51.798;19.474;2022-07-10T09:37:23;98767.84;;;16.41;100.00
50734;BME280;36701;51.798;19.474;2022-07-10T09:40:01;98737.81;;;15.70;100.00
50734;BME280;36701;51.798;19.474;2022-07-10T09:42:38;98752.94;;;15.76;100.00
50734;BME280;36701;51.798;19.474;2022-07-10T09:47:45;98769.47;;;15.55;100.00
50734;BME280;36701;51.798;19.474;2022-07-10T09:50:21;98765.87;;;15.60;100.00
50734;BME280;36701;51.798;19.474;2022-07-10T09:52:56;98720.63;;;15.07;100.00
50734;BME280;36701;51.798;19.474;2022-07-10T09:55:25;98735.19;;;15.40;100.00
50734;BME280;36701;51.798;19.474;2022-07-10T09:57:54;98728.03;;;15.25;100.00
50734;BME280;36701;51.798;19.474;2022-07-10T10:00:31;98748.44;;;15.66;100.00
50734;BME280;36701;51.798;19.474;2022-07-10T10:02:59;98708.97;;;15.31;100.00
50734;BME280;36701;51.798;19.474;2022-07-10T10:05:33;98737.72;;;15.80;100.00
50734;BME280;36701;51.798;19.474;2022-07-10T10:08:06;98747.59;;;16.14;100.00
50734;BME280;36701;51.798;19.474;2022-07-10T10:10:35;98740.31;;;16.09;100.00
50734;BME280;36701;51.798;19.474;2022-07-10T10:13:07;98709.94;;;15.88;100.00
50734;BME280;36701;51.798;19.474;2022-07-10T10:15:36;98705.69;;;16.20;100.00
50734;BME280;36701;51.798;19.474;2022-07-10T10:18:03;98740.47;;;16.37;100.00
50734;BME280;36701;51.798;19.474;2022-07-10T10:20:31;98689.50;;;16.29;100.00
50734;BME280;36701;51.798;19.474;2022-07-10T10:23:05;98731.53;;;16.69;100.00
50734;BME280;36701;51.798;19.474;2022-07-10T10:25:33;98687.91;;;16.28;100.00
50734;BME280;36701;51.798;19.474;2022-07-10T10:28:01;98731.94;;;16.77;100.00
50734;BME280;36701;51.798;19.474;2022-07-10T10:30:30;98734.47;;;17.06;100.00
50734;BME280;36701;51.798;19.474;2022-07-10T10:32:57;98731.47;;;17.35;100.00
50734;BME280;36701;51.798;19.474;2022-07-10T10:35:43;98722.41;;;17.54;100.00
50734;BME280;36701;51.798;19.474;2022-07-10T10:38:14;98710.47;;;16.94;100.00
50734;BME280;36701;51.798;19.474;2022-07-10T10:40:41;98701.81;;;16.92;100.00
50734;BME280;36701;51.798;19.474;2022-07-10T10:43:22;98728.84;;;17.30;100.00
50734;BME280;36701;51.798;19.474;2022-07-10T10:45:50;98732.59;;;17.34;100.00
50734;BME280;36701;51.798;19.474;2022-07-10T10:48:18;98733.94;;;17.04;100.00
50734;BME280;36701;51.798;19.474;2022-07-10T10:50:52;98721.88;;;16.96;100.00
50734;BME280;36701;51.798;19.474;2022-07-10T10:53:24;98688.94;;;16.98;100.00
50734;BME280;36701;51.798;19.474;2022-07-10T10:58:29;98738.41;;;16.81;100.00
50734;BME280;36701;51.798;19.474;2022-07-10T11:06:49;98734.25;;;18.13;100.00
50734;BME280;36701;51.798;19.474;2022-07-10T11:12:03;98724.81;;;17.41;100.00
50734;BME280;36701;51.798;19.474;2022-07-10T11:14:35;98739.12;;;17.61;100.00
50734;BME280;36701;51.798;19.474;2022-07-10T11:17:03;98768.81;;;16.83;100.00
50734;BME280;36701;51.798;19.474;2022-07-10T11:19:31;98780.59;;;15.83;100.00
50734;BME280;36701;51.798;19.474;2022-07-10T11:25:00;98777.94;;;14.61;100.00
50734;BME280;36701;51.798;19.474;2022-07-10T11:27:57;98783.03;;;14.23;100.00
50734;BME280;36701;51.798;19.474;2022-07-10T11:30:27;98724.78;;;13.80;100.00
50734;BME280;36701;51.798;19.474;2022-07-10T11:32:54;98759.88;;;14.01;100.00
50734;BME280;36701;51.798;19.474;2022-07-10T11:35:21;98753.84;;;14.14;100.00
50734;BME280;36701;51.798;19.474;2022-07-10T11:37:52;98746.19;;;14.27;100.00
50734;BME280;36701;51.798;19.474;2022-07-10T11:40:20;98696.75;;;14.11;100.00
50734;BME280;36701;51.798;19.474;2022-07-10T11:47:50;98716.81;;;15.08;100.00
50734;BME280;36701;51.798;19.474;2022-07-10T11:50:17;98729.03;;;15.54;100.00
50734;BME280;36701;51.798;19.474;2022-07-10T11:52:45;98737.72;;;15.80;100.00
50734;BME280;36701;51.798;19.474;2022-07-10T11:55:19;98696.56;;;15.92;100.00
50734;BME280;36701;51.798;19.474;2022-07-10T11:57:46;98739.50;;;16.09;100.00
50734;BME280;36701;51.798;19.474;2022-07-10T12:02:53;98737.97;;;16.22;100.00
50734;BME280;36701;51.798;19.474;2022-07-10T12:05:33;98742.31;;;16.04;100.00
50734;BME280;36701;51.798;19.474;2022-07-10T12:08:00;98706.72;;;16.05;100.00
50734;BME280;36701;51.798;19.474;2022-07-10T12:10:28;98737.88;;;16.08;100.00
50734;BME280;36701;51.798;19.474;2022-07-10T12:13:07;98731.81;;;16.68;100.00
50734;BME280;36701;51.798;19.474;2022-07-10T12:15:46;98740.12;;;17.10;100.00
50734;BME280;36701;51.798;19.474;2022-07-10T12:18:21;98727.59;;;17.09;100.00
50734;BME280;36701;51.798;19.474;2022-07-10T12:20:49;98703.66;;;17.11;100.00
50734;BME280;36701;51.798;19.474;2022-07-10T12:23:18;98732.28;;;17.50;100.00
50734;BME280;36701;51.798;19.474;2022-07-10T12:25:48;98698.41;;;17.70;100.00
50734;BME280;36701;51.798;19.474;2022-07-10T12:28:17;98729.44;;;17.69;100.00
50734;BME280;36701;51.798;19.474;2022-07-10T12:30:45;98723.09;;;17.18;100.00
50734;BME280;36701;51.798;19.474;2022-07-10T12:33:13;98744.97;;;17.13;100.00
50734;BME280;36701;51.798;19.474;2022-07-10T12:35:52;98708.19;;;17.57;100.00
50734;BME280;36701;51.798;19.474;2022-07-10T12:38:21;98759.72;;;17.95;100.00
50734;BME280;36701;51.798;19.474;2022-07-10T12:40:49;98757.56;;;18.42;100.00
50734;BME280;36701;51.798;19.474;2022-07-10T12:43:25;98699.34;;;18.61;100.00
50734;BME280;36701;51.798;19.474;2022-07-10T12:46:16;98701.38;;;19.49;100.00
50734;BME280;36701;51.798;19.474;2022-07-10T12:49:08;98696.19;;;19.88;100.00
50734;BME280;36701;51.798;19.474;2022-07-10T12:51:42;98720.19;;;20.70;100.00
50734;BME280;36701;51.798;19.474;2022-07-10T12:54:33;98716.12;;;20.84;100.00
50734;BME280;36701;51.798;19.474;2022-07-10T12:57:01;98739.47;;;20.64;100.00
50734;BME280;36701;51.798;19.474;2022-07-10T12:59:28;98734.81;;;20.21;100.00
50734;BME280;36701;51.798;19.474;2022-07-10T13:01:55;98685.75;;;19.99;100.00
50734;BME280;36701;51.798;19.474;2022-07-10T13:04:23;98716.12;;;19.88;100.00
50734;BME280;36701;51.798;19.474;2022-07-10T13:06:50;98738.72;;;19.63;100.00
50734;BME280;36701;51.798;19.474;2022-07-10T13:09:21;98744.37;;;19.35;100.00
50734;BME280;36701;51.798;19.474;2022-07-10T13:11:53;98744.91;;;19.54;100.00
50734;BME280;36701;51.798;19.474;2022-07-10T13:14:20;98703.69;;;19.73;100.00